Time;durP1;ratioP1;P1;durP2;ratioP2;P2;SDS_P1;SDS_P2;PMS_P1;PMS_P2;Temp;Humidity;BMP_temperature;BMP_pressure;BME280_temperature;BME280_humidity;BME280_pressure;Samples;Min_cycle;Max_cycle;Signal;HPM_P1;HPM_P2
2023/04/14 00:00:25;;;;;;;3.00;2.40;;;7.00;97.30;;;;;;4914049;29;20217;-90
2023/04/14 00:02:51;;;;;;;1.43;1.33;;;7.00;97.30;;;;;;4918727;29;20661;-91
2023/04/14 00:05:17;;;;;;;5.30;1.80;;;7.00;97.30;;;;;;4914835;29;20177;-90
2023/04/14 00:07:42;;;;;;;1.90;1.83;;;7.00;97.30;;;;;;4936459;28;20208;-89
2023/04/14 00:10:08;;;;;;;5.03;4.60;;;7.00;97.30;;;;;;4915286;29;20250;-90
2023/04/14 00:12:34;;;;;;;1.80;1.70;;;7.00;97.30;;;;;;4915655;29;20203;-91
2023/04/14 00:14:59;;;;;;;1.67;1.57;;;7.00;97.30;;;;;;4931661;29;20421;-89
2023/04/14 00:17:25;;;;;;;3.40;3.20;;;7.10;97.30;;;;;;4915765;29;20776;-89
2023/04/14 00:19:50;;;;;;;4.20;2.07;;;7.10;97.30;;;;;;4900370;29;20200;-89
2023/04/14 00:22:17;;;;;;;1.73;1.60;;;7.10;97.30;;;;;;4914998;29;20228;-90
2023/04/14 00:24:42;;;;;;;1.77;1.63;;;7.20;97.30;;;;;;4909624;29;20204;-90
2023/04/14 00:27:09;;;;;;;1.70;1.37;;;7.20;97.30;;;;;;4914977;29;21005;-89
2023/04/14 00:29:35;;;;;;;2.13;1.83;;;7.20;97.30;;;;;;4926767;29;20188;-90
2023/04/14 00:32:00;;;;;;;1.37;1.27;;;7.20;97.30;;;;;;4919144;29;20814;-89
2023/04/14 00:34:25;;;;;;;6.30;3.20;;;7.20;97.30;;;;;;4909918;29;20185;-90
2023/04/14 00:36:51;;;;;;;1.47;1.37;;;7.20;97.30;;;;;;4918673;29;20544;-89
2023/04/14 00:39:16;;;;;;;1.80;1.70;;;7.20;97.30;;;;;;4914775;29;20173;-89
2023/04/14 00:41:42;;;;;;;6.13;2.60;;;7.20;97.30;;;;;;4920262;29;20242;-89
2023/04/14 00:44:08;;;;;;;1.80;1.70;;;7.20;97.30;;;;;;4911415;29;20280;-89
2023/04/14 00:46:35;;;;;;;2.57;2.10;;;7.20;97.30;;;;;;4909549;29;20181;-90
2023/04/14 00:49:01;;;;;;;1.63;1.63;;;7.20;97.30;;;;;;4908903;29;20426;-89
2023/04/14 00:51:26;;;;;;;2.00;1.77;;;7.30;97.30;;;;;;4912583;29;20459;-89
2023/04/14 00:53:53;;;;;;;1.30;1.20;;;7.30;97.30;;;;;;4900049;29;20189;-89
2023/04/14 00:56:20;;;;;;;1.57;1.47;;;7.30;97.30;;;;;;4912797;29;20252;-89
2023/04/14 00:58:45;;;;;;;1.43;1.33;;;7.30;97.30;;;;;;4915510;29;20438;-89
2023/04/14 01:01:11;;;;;;;3.80;2.30;;;7.40;97.30;;;;;;4904413;29;20469;-90
2023/04/14 01:03:37;;;;;;;1.13;1.10;;;7.40;97.30;;;;;;4929332;29;20184;-89
2023/04/14 01:06:03;;;;;;;5.60;4.60;;;7.40;97.30;;;;;;4901150;29;20828;-89
2023/04/14 01:08:28;;;;;;;1.50;1.40;;;7.40;97.30;;;;;;4911337;29;20255;-89
2023/04/14 01:11:15;;;;;;;3.80;2.30;;;7.40;97.30;;;;;;4907126;29;20880;-89
2023/04/14 01:14:52;;;;;;;2.83;2.63;;;7.30;97.30;;;;;;4974078;23;20235;-88
2023/04/14 01:17:53;;;;;;;1.30;1.20;;;7.30;97.30;;;;;;4930401;28;20545;-89
2023/04/14 01:20:53;;;;;;;2.30;1.53;;;7.30;97.30;;;;;;4930952;29;20775;-88
2023/04/14 01:35:04;;;;;;;2.33;2.00;;;7.40;97.30;;;;;;4981727;28;20445;-90
2023/04/14 01:43:52;;;;;;;2.17;2.00;;;7.40;97.30;;;;;;4946491;23;20497;-90
2023/04/14 01:46:24;;;;;;;2.50;2.30;;;7.40;97.30;;;;;;4955567;28;20430;-89
2023/04/14 01:48:54;;;;;;;1.73;1.27;;;7.40;97.30;;;;;;4963299;28;20855;-89
2023/04/14 01:51:25;;;;;;;2.67;2.50;;;7.40;97.30;;;;;;4947543;28;20477;-90
2023/04/14 01:54:23;;;;;;;1.30;1.20;;;7.40;97.30;;;;;;4972205;23;20499;-91
2023/04/14 01:57:03;;;;;;;1.73;1.63;;;7.40;97.30;;;;;;4975283;28;20464;-90
2023/04/14 01:59:53;;;;;;;2.23;2.03;;;7.40;97.30;;;;;;4997080;28;20524;-91
2023/04/14 02:08:03;;;;;;;1.63;1.57;;;7.40;97.30;;;;;;5012019;28;20480;-88
2023/04/14 02:14:35;;;;;;;2.30;1.53;;;7.40;97.30;;;;;;4947081;23;20529;-89
2023/04/14 02:17:24;;;;;;;;;;;;;;;;;;;;;
2023/04/14 02:20:36;;;;;;;2.40;1.67;;;7.30;97.30;;;;;;4987219;28;20425;-88
2023/04/14 02:23:04;;;;;;;1.65;1.55;;;7.30;97.30;;;;;;4454210;23;15050910;-89
2023/04/14 02:26:22;;;;;;;1.60;1.50;;;7.30;97.30;;;;;;4926514;29;20679;-89
2023/04/14 02:29:22;;;;;;;16.30;3.10;;;7.30;97.30;;;;;;4945139;28;20449;-89
2023/04/14 02:32:12;;;;;;;2.50;1.97;;;7.30;97.30;;;;;;4933240;29;20427;-89
2023/04/14 02:38:45;;;;;;;;;;;;;;;;;;;;;
2023/04/14 02:42:14;;;;;;;2.60;1.80;;;7.20;97.30;;;;;;4909833;29;20961;-89
2023/04/14 02:45:34;;;;;;;1.80;1.77;;;7.30;97.30;;;;;;4964834;23;20501;-90
2023/04/14 02:51:44;;;;;;;3.37;2.70;;;7.20;97.30;;;;;;4917079;28;20518;-89
2023/04/14 03:04:52;;;;;;;1.90;1.83;;;7.10;97.30;;;;;;5008582;28;20498;-90
2023/04/14 03:10:44;;;;;;;1.37;1.30;;;7.10;97.30;;;;;;4995938;28;20427;-89
2023/04/14 03:13:25;;;;;;;;;;;;;;;;;;;;;
2023/04/14 03:16:04;;;;;;;4.83;2.53;;;7.10;97.30;;;;;;5009818;28;20802;-89
2023/04/14 03:19:14;;;;;;;4.07;2.40;;;7.10;97.30;;;;;;5011315;28;20699;-89
2023/04/14 03:22:15;;;;;;;1.70;1.60;;;7.10;97.30;;;;;;4989165;28;20553;-90
2023/04/14 03:24:45;;;;;;;2.67;2.47;;;7.10;97.30;;;;;;5005672;28;20474;-89
2023/04/14 03:27:30;;;;;;;;;;;;;;;;;;;;;
2023/04/14 03:30:24;;;;;;;1.73;1.63;;;7.00;97.30;;;;;;5018010;28;20429;-90
2023/04/14 03:33:32;;;;;;;4.40;2.53;;;7.00;97.30;;;;;;5009873;28;20455;-89
2023/04/14 03:36:25;;;;;;;;;;;;;;;;;;;;;
2023/04/14 03:39:04;;;;;;;2.37;2.17;;;7.00;97.30;;;;;;4934612;29;20524;-89
2023/04/14 03:41:46;;;;;;;1.20;1.10;;;6.90;97.30;;;;;;4918722;29;20532;-89
2023/04/14 03:44:36;;;;;;;;;;;;;;;;;;;;;
2023/04/14 03:47:34;;;;;;;2.10;1.50;;;7.00;97.30;;;;;;5009543;28;20423;-89
2023/04/14 03:50:14;;;;;;;1.77;1.67;;;7.00;97.30;;;;;;5010269;28;20462;-89
2023/04/14 03:52:53;;;;;;;1.30;1.20;;;6.90;97.30;;;;;;4991939;28;20427;-89
2023/04/14 03:56:13;;;;;;;2.47;2.27;;;6.90;97.30;;;;;;5001131;28;20925;-90
2023/04/14 03:59:24;;;;;;;7.10;3.00;;;6.90;97.30;;;;;;4987120;28;20427;-89
2023/04/14 04:01:54;;;;;;;4.80;2.00;;;6.90;97.30;;;;;;4988272;28;20490;-89
2023/04/14 04:05:13;;;;;;;1.77;1.67;;;6.90;97.30;;;;;;4985912;28;20472;-90
2023/04/14 04:08:04;;;;;;;7.13;3.23;;;6.90;97.30;;;;;;5002383;28;20412;-90
2023/04/14 04:11:23;;;;;;;2.03;1.90;;;6.90;97.30;;;;;;5001512;28;20763;-88
2023/04/14 04:13:53;;;;;;;2.13;1.53;;;6.80;97.30;;;;;;4949205;28;20443;-89
2023/04/14 04:19:34;;;;;;;1.83;1.73;;;6.80;97.30;;;;;;4900821;29;20421;-90
2023/04/14 04:25:54;;;;;;;1.70;1.60;;;6.80;97.30;;;;;;4852602;29;20533;-89
2023/04/14 04:28:56;;;;;;;4.00;1.50;;;6.80;97.30;;;;;;4846621;29;20510;-90
2023/04/14 04:31:33;;;;;;;2.50;2.30;;;6.80;97.30;;;;;;4869898;29;20426;-89
2023/04/14 04:34:14;;;;;;;2.67;2.47;;;6.80;97.30;;;;;;4866899;29;20450;-89
2023/04/14 04:36:44;;;;;;;3.70;1.47;;;6.80;97.30;;;;;;4866834;29;20549;-89
2023/04/14 04:39:09;;;;;;;2.53;2.33;;;6.80;97.30;;;;;;4843103;29;20437;-91
2023/04/14 04:41:35;;;;;;;1.60;1.50;;;6.80;97.30;;;;;;4869374;29;20484;-88
2023/04/14 04:44:00;;;;;;;1.20;1.10;;;6.80;97.30;;;;;;4971216;28;20778;-89
2023/04/14 04:46:37;;;;;;;2.70;2.23;;;6.80;97.30;;;;;;4992134;28;20194;-89
2023/04/14 04:49:02;;;;;;;1.70;1.53;;;6.80;97.30;;;;;;4995139;28;20200;-90
2023/04/14 04:51:28;;;;;;;2.13;1.80;;;6.80;97.30;;;;;;4994234;28;20425;-90
2023/04/14 04:53:53;;;;;;;2.80;2.60;;;6.80;97.30;;;;;;4994340;28;20198;-88
2023/04/14 04:56:20;;;;;;;4.93;2.87;;;6.80;97.30;;;;;;4994054;28;20600;-89
2023/04/14 04:58:47;;;;;;;1.67;1.60;;;6.80;97.30;;;;;;4994171;28;20178;-89
2023/04/14 05:01:18;;;;;;;1.50;1.40;;;6.80;97.30;;;;;;4993731;28;20461;-89
2023/04/14 05:03:44;;;;;;;8.13;3.53;;;6.80;97.30;;;;;;5003135;28;21024;-89
2023/04/14 05:06:10;;;;;;;1.50;1.40;;;6.80;97.30;;;;;;5008548;28;20406;-89
2023/04/14 05:08:35;;;;;;;1.73;1.63;;;6.80;97.30;;;;;;4988614;28;20444;-89
2023/04/14 05:11:04;;;;;;;5.90;2.20;;;6.80;97.30;;;;;;4994204;28;20182;-89
2023/04/14 05:13:30;;;;;;;3.03;1.90;;;6.80;97.30;;;;;;4990900;28;20256;-90
2023/04/14 05:16:06;;;;;;;2.13;1.97;;;6.90;97.30;;;;;;5003435;28;20425;-91
2023/04/14 05:18:32;;;;;;;1.83;1.73;;;6.90;97.30;;;;;;4992690;28;20213;-92
2023/04/14 05:21:03;;;;;;;2.80;2.53;;;6.90;97.30;;;;;;4992216;28;20464;-89
2023/04/14 05:23:29;;;;;;;1.40;1.30;;;6.90;97.30;;;;;;4990623;28;20511;-90
2023/04/14 05:25:55;;;;;;;2.70;2.03;;;6.90;97.30;;;;;;4992836;28;20504;-90
2023/04/14 05:28:21;;;;;;;2.80;2.60;;;6.90;97.30;;;;;;4994968;28;20417;-89
2023/04/14 05:30:47;;;;;;;3.43;1.87;;;7.00;97.30;;;;;;4990343;28;20435;-89
2023/04/14 05:33:18;;;;;;;1.30;1.20;;;7.00;97.30;;;;;;4995038;28;20284;-89
2023/04/14 05:35:49;;;;;;;1.77;1.67;;;7.00;97.30;;;;;;5010989;28;20421;-90
2023/04/14 05:38:18;;;;;;;1.87;1.77;;;7.10;97.30;;;;;;5015050;28;20413;-91
2023/04/14 05:40:47;;;;;;;1.83;1.60;;;7.10;97.30;;;;;;5000658;28;20534;-90
2023/04/14 05:43:15;;;;;;;2.37;2.17;;;7.10;97.30;;;;;;5009595;28;20507;-91
2023/04/14 05:45:41;;;;;;;3.17;2.40;;;7.10;97.30;;;;;;5009823;28;20435;-90
2023/04/14 05:48:06;;;;;;;2.43;2.23;;;7.20;97.30;;;;;;4997807;28;20413;-90
2023/04/14 05:50:39;;;;;;;2.93;2.73;;;7.20;97.30;;;;;;5002902;28;20802;-91
2023/04/14 05:53:05;;;;;;;1.90;1.80;;;7.20;97.30;;;;;;5014298;28;20202;-90
2023/04/14 05:55:31;;;;;;;2.27;2.07;;;7.20;97.30;;;;;;4997753;28;20795;-91
2023/04/14 05:57:57;;;;;;;5.43;4.93;;;7.20;97.30;;;;;;4991205;28;20233;-91
2023/04/14 06:00:24;;;;;;;1.50;1.40;;;7.30;97.30;;;;;;5002035;28;20629;-91
2023/04/14 06:02:50;;;;;;;2.53;1.90;;;7.30;97.30;;;;;;4982198;28;20468;-91
2023/04/14 06:05:16;;;;;;;2.87;2.23;;;7.30;97.30;;;;;;4969868;28;20974;-92
2023/04/14 06:07:41;;;;;;;2.77;2.23;;;7.30;97.30;;;;;;4984271;28;20413;-92
2023/04/14 06:10:08;;;;;;;1.83;1.73;;;7.30;97.30;;;;;;5007068;28;20212;-93
2023/04/14 06:12:33;;;;;;;1.70;1.60;;;7.40;97.30;;;;;;5012471;28;20246;-91
2023/04/14 06:14:59;;;;;;;1.40;1.30;;;7.40;97.30;;;;;;4977066;28;20426;-91
2023/04/14 06:17:24;;;;;;;2.90;2.03;;;7.40;97.30;;;;;;4977110;28;20639;-91
2023/04/14 06:19:52;;;;;;;2.33;1.37;;;7.50;97.30;;;;;;4989298;28;20202;-91
2023/04/14 06:22:20;;;;;;;1.40;1.30;;;7.50;97.30;;;;;;4979546;28;20182;-91
2023/04/14 06:24:45;;;;;;;2.70;2.50;;;7.50;97.30;;;;;;4982384;28;20437;-91
2023/04/14 06:27:11;;;;;;;2.57;1.80;;;7.60;97.30;;;;;;4996316;28;20440;-91
2023/04/14 06:29:36;;;;;;;2.23;2.03;;;7.60;97.30;;;;;;4992259;28;20194;-92
2023/04/14 06:32:02;;;;;;;1.30;1.20;;;7.60;97.30;;;;;;4989316;28;20197;-91
2023/04/14 06:34:27;;;;;;;1.30;1.20;;;7.60;97.30;;;;;;4981925;28;20713;-92
2023/04/14 06:36:55;;;;;;;1.73;1.30;;;7.60;97.30;;;;;;4988530;28;20273;-92
2023/04/14 06:39:21;;;;;;;3.23;3.03;;;7.60;97.30;;;;;;4983147;28;20187;-92
2023/04/14 06:41:46;;;;;;;3.60;2.80;;;7.60;97.30;;;;;;4987262;28;20585;-94
2023/04/14 06:44:12;;;;;;;2.50;2.30;;;7.60;97.30;;;;;;4977771;28;20233;-94
2023/04/14 06:46:38;;;;;;;2.03;1.93;;;7.60;97.30;;;;;;4993475;28;20237;-92
2023/04/14 06:49:04;;;;;;;3.17;2.43;;;7.70;97.30;;;;;;4983652;28;20733;-92
2023/04/14 06:51:31;;;;;;;1.87;1.77;;;7.70;97.30;;;;;;4990755;28;20182;-92
2023/04/14 06:53:56;;;;;;;2.50;1.57;;;7.70;97.30;;;;;;4994180;28;20206;-94
2023/04/14 06:56:24;;;;;;;2.00;1.90;;;7.70;97.30;;;;;;5003749;28;20437;-91
2023/04/14 06:58:50;;;;;;;2.63;2.43;;;7.70;97.30;;;;;;5007123;28;20205;-91
2023/04/14 07:01:15;;;;;;;3.57;2.00;;;7.80;97.30;;;;;;4984348;28;20473;-93
2023/04/14 07:03:42;;;;;;;1.30;1.20;;;7.80;97.30;;;;;;4997803;28;20233;-91
2023/04/14 07:06:12;;;;;;;7.50;2.03;;;7.80;97.30;;;;;;5005655;28;20270;-92
2023/04/14 07:08:39;;;;;;;1.90;1.80;;;7.90;97.30;;;;;;5010410;28;20419;-92
2023/04/14 07:11:07;;;;;;;2.27;2.07;;;7.90;97.30;;;;;;4997748;28;20461;-91
2023/04/14 07:13:33;;;;;;;4.30;2.20;;;7.90;97.30;;;;;;5017614;28;20939;-91
2023/04/14 07:16:01;;;;;;;2.83;2.63;;;7.90;97.30;;;;;;5005510;28;20510;-91
2023/04/14 07:18:26;;;;;;;1.20;1.10;;;7.90;97.30;;;;;;5006940;28;20452;-91
2023/04/14 07:20:53;;;;;;;2.30;2.10;;;7.90;97.30;;;;;;4998668;28;20600;-92
2023/04/14 07:23:19;;;;;;;8.57;3.67;;;7.90;97.30;;;;;;4998157;28;20293;-91
2023/04/14 07:25:51;;;;;;;1.63;1.53;;;7.90;97.30;;;;;;4992926;28;20814;-91
2023/04/14 07:28:21;;;;;;;7.10;2.70;;;7.90;97.30;;;;;;5001867;28;20467;-91
2023/04/14 07:30:48;;;;;;;1.63;1.63;;;7.90;97.30;;;;;;4989086;28;20436;-89
2023/04/14 07:33:21;;;;;;;4.47;2.90;;;7.80;97.30;;;;;;5001799;28;21372;-89
2023/04/14 07:35:53;;;;;;;2.30;1.37;;;7.80;97.30;;;;;;5003652;28;20446;-90
2023/04/14 07:38:19;;;;;;;3.03;2.20;;;7.90;97.30;;;;;;5001055;28;20430;-91
2023/04/14 07:40:47;;;;;;;2.67;1.50;;;7.90;97.30;;;;;;4992884;28;20553;-90
2023/04/14 07:43:18;;;;;;;3.47;2.70;;;7.90;97.30;;;;;;4999449;28;20201;-90
2023/04/14 07:45:43;;;;;;;2.10;1.50;;;8.00;97.30;;;;;;4992175;28;20425;-92
2023/04/14 07:48:09;;;;;;;2.03;1.90;;;8.00;97.30;;;;;;5017224;28;20429;-90
2023/04/14 07:50:36;;;;;;;1.93;1.83;;;8.00;97.30;;;;;;4989864;28;20261;-90
2023/04/14 07:53:05;;;;;;;2.07;1.93;;;8.10;97.30;;;;;;5007444;28;20204;-90
2023/04/14 07:55:31;;;;;;;2.30;2.10;;;8.10;97.30;;;;;;5010934;28;20431;-91
2023/04/14 07:57:56;;;;;;;4.97;2.80;;;8.20;97.30;;;;;;5003791;28;20436;-91
2023/04/14 08:00:25;;;;;;;3.10;2.90;;;8.20;97.30;;;;;;5007865;28;20212;-91
2023/04/14 08:02:50;;;;;;;2.37;2.23;;;8.30;97.30;;;;;;5007720;28;20233;-89
2023/04/14 08:05:16;;;;;;;3.07;2.10;;;8.30;97.30;;;;;;5004247;28;20441;-91
2023/04/14 08:07:48;;;;;;;2.43;2.23;;;8.40;97.30;;;;;;5012639;28;20174;-90
2023/04/14 08:10:16;;;;;;;5.27;3.20;;;8.40;97.30;;;;;;5008065;28;20192;-90
2023/04/14 08:12:45;;;;;;;3.07;1.80;;;8.50;97.30;;;;;;4998399;28;20865;-90
2023/04/14 08:15:16;;;;;;;2.23;1.57;;;8.60;97.30;;;;;;4999117;28;20887;-91
2023/04/14 08:17:49;;;;;;;3.10;2.90;;;8.50;97.30;;;;;;5011616;28;20952;-92
2023/04/14 08:20:17;;;;;;;1.83;1.73;;;8.60;97.30;;;;;;5001675;28;20555;-89
2023/04/14 08:22:42;;;;;;;1.47;1.37;;;8.70;97.30;;;;;;5008871;28;20420;-91
2023/04/14 08:25:10;;;;;;;1.70;1.70;;;8.80;97.30;;;;;;5007047;28;20786;-88
2023/04/14 08:27:37;;;;;;;2.00;1.70;;;8.90;97.30;;;;;;4995980;28;20655;-90
2023/04/14 08:30:05;;;;;;;3.10;2.00;;;8.90;97.30;;;;;;5019113;28;20555;-91
2023/04/14 08:32:33;;;;;;;1.63;1.60;;;8.90;97.30;;;;;;5009908;28;20487;-90
2023/04/14 08:34:59;;;;;;;2.50;2.30;;;9.00;97.30;;;;;;5005288;28;20418;-89
2023/04/14 08:37:27;;;;;;;2.93;2.73;;;9.00;97.30;;;;;;4988019;28;20423;-91
2023/04/14 08:39:55;;;;;;;2.70;2.43;;;9.10;97.30;;;;;;5002987;28;20197;-91
2023/04/14 08:42:22;;;;;;;2.83;1.90;;;9.10;97.30;;;;;;5004437;28;20420;-92
2023/04/14 08:44:50;;;;;;;1.33;1.23;;;9.20;97.30;;;;;;5007938;28;20448;-90
2023/04/14 08:47:17;;;;;;;3.23;2.13;;;9.20;97.30;;;;;;5005609;28;20484;-91
2023/04/14 08:50:10;;;;;;;2.17;2.00;;;9.10;97.30;;;;;;4997367;28;20625;-91
2023/04/14 08:52:37;;;;;;;1.53;1.43;;;9.20;97.30;;;;;;5005704;28;20961;-91
2023/04/14 08:55:06;;;;;;;2.03;1.90;;;9.20;97.30;;;;;;5007048;28;20409;-92
2023/04/14 08:57:34;;;;;;;1.50;1.40;;;9.30;97.30;;;;;;5006576;28;20434;-92
2023/04/14 09:00:03;;;;;;;3.47;2.00;;;9.30;97.30;;;;;;4994830;28;20428;-91
2023/04/14 09:02:31;;;;;;;1.70;1.67;;;9.40;97.30;;;;;;5003471;28;20476;-92
2023/04/14 09:04:57;;;;;;;3.03;2.83;;;9.60;97.30;;;;;;4997958;28;20424;-91
2023/04/14 09:07:23;;;;;;;3.03;1.67;;;9.70;97.30;;;;;;4995563;28;20421;-92
2023/04/14 09:09:49;;;;;;;2.30;1.93;;;9.70;97.30;;;;;;5004933;28;20495;-91
2023/04/14 09:12:18;;;;;;;2.23;2.10;;;9.80;97.30;;;;;;5017217;28;20443;-91
2023/04/14 09:14:45;;;;;;;8.00;2.30;;;9.90;97.30;;;;;;4999689;28;20208;-91
2023/04/14 09:17:11;;;;;;;2.67;1.63;;;9.90;97.30;;;;;;5014533;28;20938;-91
2023/04/14 09:19:37;;;;;;;3.37;2.40;;;9.90;97.30;;;;;;5011584;28;20455;-91
2023/04/14 09:22:03;;;;;;;2.23;2.03;;;9.90;97.30;;;;;;4999502;28;20701;-91
2023/04/14 09:24:28;;;;;;;2.60;2.40;;;9.90;97.30;;;;;;4997844;28;21090;-91
2023/04/14 09:26:54;;;;;;;2.00;1.73;;;9.90;97.30;;;;;;5013711;28;20232;-91
2023/04/14 09:29:20;;;;;;;6.83;1.70;;;10.00;97.30;;;;;;4981280;28;20173;-92
2023/04/14 09:31:46;;;;;;;2.60;1.43;;;10.10;97.30;;;;;;5005669;28;20801;-91
2023/04/14 09:34:17;;;;;;;4.83;2.80;;;10.10;97.30;;;;;;5006719;28;20196;-92
2023/04/14 09:37:04;;;;;;;3.03;2.23;;;10.10;97.30;;;;;;4999952;28;20462;-91
2023/04/14 09:39:35;;;;;;;2.80;2.40;;;10.00;97.30;;;;;;4993479;28;20436;-91
2023/04/14 09:42:18;;;;;;;3.33;2.07;;;10.00;97.30;;;;;;4999243;28;20468;-91
2023/04/14 09:45:03;;;;;;;1.17;1.10;;;10.10;97.30;;;;;;4992890;28;20995;-92
2023/04/14 09:47:30;;;;;;;1.57;1.30;;;10.20;97.30;;;;;;5009694;28;20419;-90
2023/04/14 09:49:57;;;;;;;1.30;1.20;;;10.20;97.30;;;;;;5005838;28;20422;-92
2023/04/14 09:52:38;;;;;;;1.30;1.20;;;10.20;97.30;;;;;;5000901;28;20428;-91
2023/04/14 09:55:28;;;;;;;2.37;2.07;;;10.30;97.30;;;;;;4995828;28;20447;-91
2023/04/14 09:58:08;;;;;;;1.60;1.50;;;10.40;97.30;;;;;;4998035;28;20421;-91
2023/04/14 10:00:39;;;;;;;1.80;1.70;;;10.50;97.30;;;;;;4989323;28;20890;-90
2023/04/14 10:03:07;;;;;;;3.40;1.90;;;10.50;97.30;;;;;;4998594;28;20476;-91
2023/04/14 10:05:47;;;;;;;1.60;1.50;;;10.60;97.30;;;;;;4992675;28;20456;-91
2023/04/14 10:08:20;;;;;;;1.30;1.30;;;10.70;97.30;;;;;;4994901;28;20420;-92
2023/04/14 10:10:48;;;;;;;1.60;1.50;;;10.80;97.30;;;;;;4993822;28;20432;-92
2023/04/14 10:13:21;;;;;;;2.33;2.13;;;10.90;97.30;;;;;;4992614;28;20448;-91
2023/04/14 10:15:49;;;;;;;7.23;4.00;;;10.90;97.30;;;;;;4991715;28;20424;-91
2023/04/14 10:18:18;;;;;;;1.73;1.63;;;10.80;97.30;;;;;;5005692;28;20433;-92
2023/04/14 10:20:49;;;;;;;1.33;1.20;;;10.80;97.30;;;;;;5008433;28;20453;-91
2023/04/14 10:23:17;;;;;;;1.20;1.10;;;10.80;97.30;;;;;;5007508;28;20467;-91
2023/04/14 10:25:50;;;;;;;1.17;1.07;;;10.70;97.30;;;;;;4993089;28;20976;-91
2023/04/14 10:28:16;;;;;;;1.30;1.20;;;10.70;97.30;;;;;;5008336;28;20504;-92
2023/04/14 10:31:04;;;;;;;;;;;;;;;;;;;;;
2023/04/14 10:33:30;;;;;;;1.70;1.63;;;10.70;97.30;;;;;;4990108;28;20222;-92
2023/04/14 10:35:59;;;;;;;1.37;1.27;;;10.70;97.30;;;;;;5005684;28;20496;-92
2023/04/14 10:38:38;;;;;;;1.37;1.33;;;10.70;97.30;;;;;;5008018;28;20191;-91
2023/04/14 10:41:05;;;;;;;1.77;1.73;;;10.50;97.30;;;;;;5008411;28;20460;-91
2023/04/14 10:43:33;;;;;;;1.80;1.60;;;10.30;97.30;;;;;;4992233;28;20449;-91
2023/04/14 10:45:59;;;;;;;1.20;1.10;;;10.10;97.30;;;;;;4991734;28;20425;-92
2023/04/14 10:48:27;;;;;;;1.80;1.33;;;10.10;97.30;;;;;;5007707;28;20497;-92
2023/04/14 10:50:58;;;;;;;1.47;1.37;;;10.00;97.30;;;;;;4991277;28;20181;-92
2023/04/14 10:53:25;;;;;;;1.27;1.13;;;10.00;97.30;;;;;;4999314;28;20889;-92
2023/04/14 10:55:54;;;;;;;1.20;1.10;;;10.00;97.30;;;;;;5004589;28;20500;-92
2023/04/14 10:58:21;;;;;;;1.83;1.67;;;10.10;97.30;;;;;;4985137;28;20468;-91
2023/04/14 11:00:47;;;;;;;3.17;1.63;;;10.20;97.30;;;;;;5008102;28;20468;-92
2023/04/14 11:03:16;;;;;;;1.37;1.27;;;10.40;97.30;;;;;;5003424;28;20461;-91
2023/04/14 11:05:54;;;;;;;1.37;1.27;;;10.50;97.30;;;;;;4986612;28;20565;-89
2023/04/14 11:08:32;;;;;;;1.00;0.90;;;10.60;97.30;;;;;;5000614;28;20961;-91
2023/04/14 11:11:03;;;;;;;1.10;1.00;;;10.70;97.30;;;;;;4983424;28;20421;-91
2023/04/14 11:13:30;;;;;;;1.53;1.43;;;10.70;97.30;;;;;;4985871;28;20764;-91
2023/04/14 11:16:05;;;;;;;0.93;0.83;;;10.70;97.30;;;;;;4979469;28;20422;-92
2023/04/14 11:18:41;;;;;;;1.73;1.60;;;10.80;97.30;;;;;;4988856;28;20930;-91
2023/04/14 11:21:09;;;;;;;0.93;0.83;;;10.70;97.30;;;;;;4970811;28;20939;-92
2023/04/14 11:23:36;;;;;;;1.13;1.13;;;10.60;97.30;;;;;;4978523;28;20520;-91
2023/04/14 11:26:04;;;;;;;1.53;1.43;;;10.60;97.30;;;;;;4981375;28;20422;-92
2023/04/14 11:28:34;;;;;;;1.10;1.10;;;10.60;97.30;;;;;;4966496;28;20484;-92
2023/04/14 11:31:02;;;;;;;1.23;1.13;;;10.40;97.30;;;;;;4959297;28;20437;-91
2023/04/14 11:33:36;;;;;;;1.60;1.50;;;10.30;97.30;;;;;;4965464;28;20456;-90
2023/04/14 11:36:03;;;;;;;7.60;3.80;;;10.20;97.30;;;;;;4967456;28;20426;-90
2023/04/14 11:38:29;;;;;;;2.03;1.90;;;10.10;97.30;;;;;;4970003;28;20432;-90
2023/04/14 11:40:57;;;;;;;4.60;2.20;;;10.10;97.30;;;;;;4969852;28;20525;-91
2023/04/14 11:43:23;;;;;;;2.10;1.47;;;10.00;97.30;;;;;;4970825;28;20450;-89
2023/04/14 11:45:50;;;;;;;1.30;1.20;;;10.00;97.30;;;;;;4972749;28;20512;-89
2023/04/14 11:48:18;;;;;;;1.63;1.53;;;10.00;97.30;;;;;;4981776;28;20927;-90
2023/04/14 11:50:45;;;;;;;1.40;1.30;;;9.90;97.30;;;;;;4975029;28;20433;-91
2023/04/14 11:53:11;;;;;;;2.70;2.50;;;9.90;97.30;;;;;;4967917;28;20844;-89
2023/04/14 11:55:50;;;;;;;1.37;1.27;;;10.00;97.30;;;;;;4969258;28;20435;-89
2023/04/14 11:58:24;;;;;;;3.17;1.10;;;10.10;97.30;;;;;;4968908;28;20894;-90
2023/04/14 12:00:50;;;;;;;1.40;1.30;;;10.10;97.30;;;;;;4977512;28;20466;-89
2023/04/14 12:03:16;;;;;;;1.70;1.60;;;10.20;97.30;;;;;;4974744;28;20460;-90
2023/04/14 12:05:42;;;;;;;1.40;1.30;;;10.30;97.30;;;;;;4971581;28;20839;-91
2023/04/14 12:08:08;;;;;;;1.43;1.33;;;10.30;97.30;;;;;;4979329;28;20423;-90
2023/04/14 12:10:39;;;;;;;1.13;1.03;;;10.40;97.30;;;;;;4966325;28;20697;-90
2023/04/14 12:13:07;;;;;;;1.40;1.30;;;10.50;97.30;;;;;;4973659;28;20445;-89
2023/04/14 12:15:40;;;;;;;1.27;1.17;;;10.60;97.30;;;;;;4965245;28;20501;-90
2023/04/14 12:18:09;;;;;;;16.67;1.53;;;10.70;97.30;;;;;;4985182;28;20437;-89
2023/04/14 12:20:54;;;;;;;1.60;1.50;;;10.70;97.30;;;;;;4971462;28;20469;-90
2023/04/14 12:23:20;;;;;;;1.47;1.30;;;10.80;97.30;;;;;;4966281;28;20528;-89
2023/04/14 12:25:49;;;;;;;1.20;1.10;;;10.70;97.30;;;;;;4983207;28;20501;-89
2023/04/14 12:28:28;;;;;;;1.23;1.10;;;10.60;97.30;;;;;;4972264;28;20438;-91
2023/04/14 12:31:02;;;;;;;1.37;1.30;;;10.50;97.30;;;;;;4982842;28;20447;-88
2023/04/14 12:33:28;;;;;;;2.00;1.90;;;10.50;97.30;;;;;;4974265;28;20979;-88
2023/04/14 12:36:10;;;;;;;1.23;1.20;;;10.50;97.30;;;;;;4976063;28;20422;-89
2023/04/14 12:38:36;;;;;;;1.20;1.10;;;10.50;97.30;;;;;;4977449;28;20945;-90
2023/04/14 12:41:02;;;;;;;1.40;1.30;;;10.50;97.30;;;;;;4976457;28;20467;-89
2023/04/14 12:43:35;;;;;;;1.47;1.37;;;10.40;97.30;;;;;;4976463;28;20201;-88
2023/04/14 12:46:07;;;;;;;2.37;1.43;;;10.30;97.30;;;;;;4972387;28;20194;-87
2023/04/14 12:48:44;;;;;;;1.40;1.30;;;10.20;97.30;;;;;;4974934;28;20410;-89
2023/04/14 12:51:11;;;;;;;1.80;1.70;;;10.10;97.30;;;;;;4990139;28;20510;-88
2023/04/14 12:53:37;;;;;;;2.20;2.07;;;10.30;97.30;;;;;;4987477;28;20903;-87
2023/04/14 12:56:14;;;;;;;3.97;2.53;;;10.30;97.30;;;;;;4984061;28;20440;-88
2023/04/14 12:58:51;;;;;;;1.27;1.17;;;10.50;97.30;;;;;;4999023;28;20414;-87
2023/04/14 13:01:18;;;;;;;1.20;1.10;;;10.50;97.30;;;;;;4997645;28;20457;-88
2023/04/14 13:03:50;;;;;;;1.17;1.10;;;10.60;97.30;;;;;;4983645;28;20573;-88
2023/04/14 13:06:17;;;;;;;1.43;1.33;;;10.60;97.30;;;;;;4974169;28;20938;-85
2023/04/14 13:08:43;;;;;;;0.90;0.80;;;10.60;97.30;;;;;;4975616;28;20465;-87
2023/04/14 13:11:11;;;;;;;1.43;0.90;;;10.50;97.30;;;;;;4981957;28;20438;-89
2023/04/14 13:14:10;;;;;;;1.17;1.10;;;10.50;97.30;;;;;;4982185;28;20441;-90
2023/04/14 13:16:38;;;;;;;1.30;1.23;;;10.60;97.30;;;;;;4997197;28;20422;-89
2023/04/14 13:19:09;;;;;;;0.83;0.77;;;10.60;97.30;;;;;;4978722;28;20442;-90
2023/04/14 13:21:40;;;;;;;0.90;0.80;;;10.50;97.30;;;;;;4984509;28;20525;-90
2023/04/14 13:24:08;;;;;;;1.07;0.97;;;10.40;97.30;;;;;;4979415;28;20438;-91
2023/04/14 13:26:38;;;;;;;1.53;1.43;;;10.40;97.30;;;;;;4999711;28;20493;-91
2023/04/14 13:29:06;;;;;;;1.00;0.90;;;10.30;97.30;;;;;;4992890;28;20450;-91
2023/04/14 13:31:40;;;;;;;1.10;1.10;;;10.30;97.30;;;;;;4992865;28;20425;-91
2023/04/14 13:34:09;;;;;;;1.30;1.10;;;10.30;97.30;;;;;;4980125;28;20822;-92
2023/04/14 13:36:37;;;;;;;1.30;1.20;;;10.40;97.30;;;;;;4990773;28;20505;-91
2023/04/14 13:39:11;;;;;;;1.00;0.90;;;10.40;97.30;;;;;;4990660;28;20422;-90
2023/04/14 13:41:40;;;;;;;1.10;1.00;;;10.40;97.30;;;;;;4977833;28;20496;-92
2023/04/14 13:44:41;;;;;;;;;;;;;;;;;;;;;
2023/04/14 13:47:10;;;;;;;1.03;0.93;;;10.60;97.30;;;;;;4977902;28;20524;-93
2023/04/14 13:52:50;;;;;;;0.97;0.90;;;10.70;97.30;;;;;;4956253;28;20422;-90
2023/04/14 13:55:30;;;;;;;0.90;0.83;;;10.70;97.30;;;;;;4986148;28;20564;-94
2023/04/14 13:57:59;;;;;;;1.10;1.00;;;10.70;97.30;;;;;;4995019;28;20417;-90
2023/04/14 14:00:30;;;;;;;2.50;1.77;;;10.70;97.30;;;;;;4993535;28;20454;-94
2023/04/14 14:02:59;;;;;;;1.20;1.20;;;10.70;97.30;;;;;;5002686;28;20472;-92
2023/04/14 14:05:28;;;;;;;1.10;1.00;;;10.70;97.30;;;;;;4998912;28;20417;-89
2023/04/14 14:08:00;;;;;;;1.20;1.13;;;10.60;97.30;;;;;;5007119;28;20422;-94
2023/04/14 14:10:29;;;;;;;1.00;0.90;;;10.60;97.30;;;;;;4998213;28;20597;-94
2023/04/14 14:12:58;;;;;;;0.97;0.90;;;10.60;97.30;;;;;;5013455;28;20441;-95
2023/04/14 14:15:27;;;;;;;1.47;1.47;;;10.70;97.30;;;;;;5011218;28;20460;-93
2023/04/14 14:18:01;;;;;;;1.40;1.33;;;10.70;97.30;;;;;;5011133;28;20413;-95
2023/04/14 14:20:27;;;;;;;1.20;1.10;;;10.50;97.30;;;;;;5007704;28;20519;-93
2023/04/14 14:22:52;;;;;;;0.90;0.80;;;10.40;97.30;;;;;;4998370;28;20433;-92
2023/04/14 14:25:18;;;;;;;3.87;1.77;;;10.30;97.30;;;;;;5013493;28;20347;-93
2023/04/14 14:27:47;;;;;;;1.20;1.10;;;10.30;97.30;;;;;;5020750;28;20474;-93